sensor_id;sensor_type;location;lat;lon;timestamp;temperature;humidity
5027;DHT22;2532;52.480;13.354;2023-11-21T00:01:22;10.50;99.90
5027;DHT22;2532;52.480;13.354;2023-11-21T00:03:49;10.30;99.90
5027;DHT22;2532;52.480;13.354;2023-11-21T00:06:18;10.20;99.90
5027;DHT22;2532;52.480;13.354;2023-11-21T00:08:46;10.10;99.90
5027;DHT22;2532;52.480;13.354;2023-11-21T00:11:12;9.90;99.90
5027;DHT22;2532;52.480;13.354;2023-11-21T00:13:40;9.80;99.90
5027;DHT22;2532;52.480;13.354;2023-11-21T00:16:07;9.60;99.90
5027;DHT22;2532;52.480;13.354;2023-11-21T00:18:34;9.50;99.90
5027;DHT22;2532;52.480;13.354;2023-11-21T00:21:01;9.60;99.90
5027;DHT22;2532;52.480;13.354;2023-11-21T00:23:30;9.40;99.90
5027;DHT22;2532;52.480;13.354;2023-11-21T00:25:57;9.40;99.90
5027;DHT22;2532;52.480;13.354;2023-11-21T00:28:25;9.30;99.90
5027;DHT22;2532;52.480;13.354;2023-11-21T00:30:52;9.30;99.90
5027;DHT22;2532;52.480;13.354;2023-11-21T00:33:19;9.20;99.90
5027;DHT22;2532;52.480;13.354;2023-11-21T00:35:46;9.20;99.90
5027;DHT22;2532;52.480;13.354;2023-11-21T00:38:13;9.20;99.90
5027;DHT22;2532;52.480;13.354;2023-11-21T00:40:42;9.10;99.90
5027;DHT22;2532;52.480;13.354;2023-11-21T00:43:08;9.10;99.90
5027;DHT22;2532;52.480;13.354;2023-11-21T00:45:35;9.00;99.90
5027;DHT22;2532;52.480;13.354;2023-11-21T00:48:03;9.00;99.90
5027;DHT22;2532;52.480;13.354;2023-11-21T00:50:30;8.90;99.90
5027;DHT22;2532;52.480;13.354;2023-11-21T00:52:57;8.90;99.90
5027;DHT22;2532;52.480;13.354;2023-11-21T00:55:24;8.90;99.90
5027;DHT22;2532;52.480;13.354;2023-11-21T00:57:53;8.80;99.90
5027;DHT22;2532;52.480;13.354;2023-11-21T01:00:20;8.80;99.90
5027;DHT22;2532;52.480;13.354;2023-11-21T01:02:47;8.80;99.90
5027;DHT22;2532;52.480;13.354;2023-11-21T01:05:14;8.70;99.90
5027;DHT22;2532;52.480;13.354;2023-11-21T01:07:41;8.60;99.90
5027;DHT22;2532;52.480;13.354;2023-11-21T01:10:08;8.60;99.90
5027;DHT22;2532;52.480;13.354;2023-11-21T01:12:36;8.50;99.90
5027;DHT22;2532;52.480;13.354;2023-11-21T01:15:06;8.50;99.90
5027;DHT22;2532;52.480;13.354;2023-11-21T01:17:33;8.40;99.90
5027;DHT22;2532;52.480;13.354;2023-11-21T01:20:00;8.30;99.90
5027;DHT22;2532;52.480;13.354;2023-11-21T01:22:28;8.30;99.90
5027;DHT22;2532;52.480;13.354;2023-11-21T01:24:55;8.30;99.90
5027;DHT22;2532;52.480;13.354;2023-11-21T01:27:23;8.30;99.90
5027;DHT22;2532;52.480;13.354;2023-11-21T01:29:50;8.20;99.90
5027;DHT22;2532;52.480;13.354;2023-11-21T01:32:20;8.20;99.90
5027;DHT22;2532;52.480;13.354;2023-11-21T01:34:47;8.20;99.90
5027;DHT22;2532;52.480;13.354;2023-11-21T01:37:14;8.20;99.90
5027;DHT22;2532;52.480;13.354;2023-11-21T01:39:42;8.20;99.90
5027;DHT22;2532;52.480;13.354;2023-11-21T01:42:10;8.20;99.90
5027;DHT22;2532;52.480;13.354;2023-11-21T01:44:38;8.10;99.90
5027;DHT22;2532;52.480;13.354;2023-11-21T01:47:05;8.10;99.90
5027;DHT22;2532;52.480;13.354;2023-11-21T01:49:35;8.00;99.90
5027;DHT22;2532;52.480;13.354;2023-11-21T01:52:03;8.00;99.90
5027;DHT22;2532;52.480;13.354;2023-11-21T01:54:31;7.90;99.90
5027;DHT22;2532;52.480;13.354;2023-11-21T01:56:58;7.90;99.90
5027;DHT22;2532;52.480;13.354;2023-11-21T01:59:32;7.90;99.90
5027;DHT22;2532;52.480;13.354;2023-11-21T02:02:00;7.90;99.90
5027;DHT22;2532;52.480;13.354;2023-11-21T02:04:28;8.00;99.90
5027;DHT22;2532;52.480;13.354;2023-11-21T02:06:59;8.00;99.90
5027;DHT22;2532;52.480;13.354;2023-11-21T02:09:26;7.90;99.90
5027;DHT22;2532;52.480;13.354;2023-11-21T02:11:54;7.90;99.90
5027;DHT22;2532;52.480;13.354;2023-11-21T02:14:21;7.80;99.90
5027;DHT22;2532;52.480;13.354;2023-11-21T02:16:48;7.80;99.90
5027;DHT22;2532;52.480;13.354;2023-11-21T02:19:18;7.80;99.90
5027;DHT22;2532;52.480;13.354;2023-11-21T02:21:49;7.70;99.90
5027;DHT22;2532;52.480;13.354;2023-11-21T02:24:19;7.70;99.90
5027;DHT22;2532;52.480;13.354;2023-11-21T02:26:46;7.70;99.90
5027;DHT22;2532;52.480;13.354;2023-11-21T02:29:13;7.70;99.90
5027;DHT22;2532;52.480;13.354;2023-11-21T02:31:43;7.70;99.90
5027;DHT22;2532;52.480;13.354;2023-11-21T02:34:13;7.70;99.90
5027;DHT22;2532;52.480;13.354;2023-11-21T02:36:40;7.70;99.90
5027;DHT22;2532;52.480;13.354;2023-11-21T02:39:08;7.60;99.90
5027;DHT22;2532;52.480;13.354;2023-11-21T02:41:37;7.60;99.90
5027;DHT22;2532;52.480;13.354;2023-11-21T02:44:04;7.60;99.90
5027;DHT22;2532;52.480;13.354;2023-11-21T02:46:33;7.60;99.90
5027;DHT22;2532;52.480;13.354;2023-11-21T02:49:00;7.70;99.90
5027;DHT22;2532;52.480;13.354;2023-11-21T02:51:28;7.70;99.90
5027;DHT22;2532;52.480;13.354;2023-11-21T02:53:55;7.70;99.90
5027;DHT22;2532;52.480;13.354;2023-11-21T02:56:24;7.70;99.90
5027;DHT22;2532;52.480;13.354;2023-11-21T02:58:55;7.70;99.90
5027;DHT22;2532;52.480;13.354;2023-11-21T03:01:23;7.70;99.90
5027;DHT22;2532;52.480;13.354;2023-11-21T03:03:50;7.80;99.90
5027;DHT22;2532;52.480;13.354;2023-11-21T03:06:18;7.80;99.90
5027;DHT22;2532;52.480;13.354;2023-11-21T03:08:45;7.70;99.90
5027;DHT22;2532;52.480;13.354;2023-11-21T03:11:13;7.70;99.90
5027;DHT22;2532;52.480;13.354;2023-11-21T03:13:40;7.70;99.90
5027;DHT22;2532;52.480;13.354;2023-11-21T03:16:09;7.70;99.90
5027;DHT22;2532;52.480;13.354;2023-11-21T03:18:37;7.70;99.90
5027;DHT22;2532;52.480;13.354;2023-11-21T03:21:04;7.70;99.90
5027;DHT22;2532;52.480;13.354;2023-11-21T03:23:31;7.80;99.90
5027;DHT22;2532;52.480;13.354;2023-11-21T03:26:00;7.80;99.90
5027;DHT22;2532;52.480;13.354;2023-11-21T03:28:27;7.80;99.90
5027;DHT22;2532;52.480;13.354;2023-11-21T03:30:55;7.80;99.90
5027;DHT22;2532;52.480;13.354;2023-11-21T03:33:24;7.80;99.90
5027;DHT22;2532;52.480;13.354;2023-11-21T03:35:51;7.70;99.90
5027;DHT22;2532;52.480;13.354;2023-11-21T03:38:18;7.70;99.90
5027;DHT22;2532;52.480;13.354;2023-11-21T03:40:46;7.70;99.90
5027;DHT22;2532;52.480;13.354;2023-11-21T03:43:13;7.70;99.90
5027;DHT22;2532;52.480;13.354;2023-11-21T03:45:40;7.60;99.90
5027;DHT22;2532;52.480;13.354;2023-11-21T03:48:07;7.50;99.90
5027;DHT22;2532;52.480;13.354;2023-11-21T03:50:36;7.50;99.90
5027;DHT22;2532;52.480;13.354;2023-11-21T03:53:03;7.40;99.90
5027;DHT22;2532;52.480;13.354;2023-11-21T03:55:30;7.50;99.90
5027;DHT22;2532;52.480;13.354;2023-11-21T03:58:00;7.50;99.90
5027;DHT22;2532;52.480;13.354;2023-11-21T04:00:28;7.50;99.90
5027;DHT22;2532;52.480;13.354;2023-11-21T04:02:55;7.50;99.90
5027;DHT22;2532;52.480;13.354;2023-11-21T04:05:22;7.40;99.90
5027;DHT22;2532;52.480;13.354;2023-11-21T04:07:51;7.30;99.90
5027;DHT22;2532;52.480;13.354;2023-11-21T04:10:19;7.30;99.90
5027;DHT22;2532;52.480;13.354;2023-11-21T04:12:46;7.30;99.90
5027;DHT22;2532;52.480;13.354;2023-11-21T04:15:14;7.30;99.90
5027;DHT22;2532;52.480;13.354;2023-11-21T04:17:41;7.30;99.90
5027;DHT22;2532;52.480;13.354;2023-11-21T04:20:09;7.30;99.90
5027;DHT22;2532;52.480;13.354;2023-11-21T04:22:39;7.30;99.90
5027;DHT22;2532;52.480;13.354;2023-11-21T04:25:11;7.30;99.90
5027;DHT22;2532;52.480;13.354;2023-11-21T04:27:39;7.30;99.90
5027;DHT22;2532;52.480;13.354;2023-11-21T04:30:09;7.30;99.90
5027;DHT22;2532;52.480;13.354;2023-11-21T04:32:36;7.30;99.90
5027;DHT22;2532;52.480;13.354;2023-11-21T04:35:05;7.40;99.90
5027;DHT22;2532;52.480;13.354;2023-11-21T04:37:32;7.40;99.90
5027;DHT22;2532;52.480;13.354;2023-11-21T04:39:59;7.40;99.90
5027;DHT22;2532;52.480;13.354;2023-11-21T04:42:28;7.50;99.90
5027;DHT22;2532;52.480;13.354;2023-11-21T04:44:55;7.50;99.90
5027;DHT22;2532;52.480;13.354;2023-11-21T04:47:22;7.40;99.90
5027;DHT22;2532;52.480;13.354;2023-11-21T04:49:49;7.40;99.90
5027;DHT22;2532;52.480;13.354;2023-11-21T04:52:16;7.50;99.90
5027;DHT22;2532;52.480;13.354;2023-11-21T04:54:43;7.50;99.90
5027;DHT22;2532;52.480;13.354;2023-11-21T04:57:10;7.50;99.90
5027;DHT22;2532;52.480;13.354;2023-11-21T04:59:39;7.50;99.90
5027;DHT22;2532;52.480;13.354;2023-11-21T05:02:06;7.50;99.90
5027;DHT22;2532;52.480;13.354;2023-11-21T05:04:33;7.50;99.90
5027;DHT22;2532;52.480;13.354;2023-11-21T05:07:00;7.40;99.90
5027;DHT22;2532;52.480;13.354;2023-11-21T05:09:27;7.40;99.90
5027;DHT22;2532;52.480;13.354;2023-11-21T05:11:57;7.50;99.90
5027;DHT22;2532;52.480;13.354;2023-11-21T05:14:25;7.50;99.90
5027;DHT22;2532;52.480;13.354;2023-11-21T05:16:54;7.40;99.90
5027;DHT22;2532;52.480;13.354;2023-11-21T05:19:21;7.40;99.90
5027;DHT22;2532;52.480;13.354;2023-11-21T05:21:48;7.50;99.90
5027;DHT22;2532;52.480;13.354;2023-11-21T05:24:15;7.40;99.90
5027;DHT22;2532;52.480;13.354;2023-11-21T05:26:42;7.40;99.90
5027;DHT22;2532;52.480;13.354;2023-11-21T05:29:09;7.40;99.90
5027;DHT22;2532;52.480;13.354;2023-11-21T05:31:36;7.40;99.90
5027;DHT22;2532;52.480;13.354;2023-11-21T05:34:05;7.40;99.90
5027;DHT22;2532;52.480;13.354;2023-11-21T05:36:31;7.40;99.90
5027;DHT22;2532;52.480;13.354;2023-11-21T05:38:59;7.30;99.90
5027;DHT22;2532;52.480;13.354;2023-11-21T05:41:26;7.30;99.90
5027;DHT22;2532;52.480;13.354;2023-11-21T05:43:53;7.20;99.90
5027;DHT22;2532;52.480;13.354;2023-11-21T05:46:20;7.20;99.90
5027;DHT22;2532;52.480;13.354;2023-11-21T05:48:47;7.20;99.90
5027;DHT22;2532;52.480;13.354;2023-11-21T05:51:15;7.20;99.90
5027;DHT22;2532;52.480;13.354;2023-11-21T05:53:43;7.20;99.90
5027;DHT22;2532;52.480;13.354;2023-11-21T05:56:10;7.20;99.90
5027;DHT22;2532;52.480;13.354;2023-11-21T05:58:39;7.10;99.90
5027;DHT22;2532;52.480;13.354;2023-11-21T06:01:06;7.10;99.90
5027;DHT22;2532;52.480;13.354;2023-11-21T06:03:34;7.00;99.90
5027;DHT22;2532;52.480;13.354;2023-11-21T06:06:02;7.00;99.90
5027;DHT22;2532;52.480;13.354;2023-11-21T06:08:31;6.90;99.90
5027;DHT22;2532;52.480;13.354;2023-11-21T06:10:58;6.90;99.90
5027;DHT22;2532;52.480;13.354;2023-11-21T06:13:24;6.90;99.90
5027;DHT22;2532;52.480;13.354;2023-11-21T06:15:52;6.80;99.90
5027;DHT22;2532;52.480;13.354;2023-11-21T06:18:19;6.90;99.90
5027;DHT22;2532;52.480;13.354;2023-11-21T06:20:46;6.90;99.90
5027;DHT22;2532;52.480;13.354;2023-11-21T06:23:13;6.90;99.90
5027;DHT22;2532;52.480;13.354;2023-11-21T06:25:43;6.90;99.90
5027;DHT22;2532;52.480;13.354;2023-11-21T06:28:10;6.90;99.90
5027;DHT22;2532;52.480;13.354;2023-11-21T06:30:37;6.90;99.90
5027;DHT22;2532;52.480;13.354;2023-11-21T06:33:04;7.00;99.90
5027;DHT22;2532;52.480;13.354;2023-11-21T06:35:32;7.00;99.90
5027;DHT22;2532;52.480;13.354;2023-11-21T06:38:00;7.00;99.90
5027;DHT22;2532;52.480;13.354;2023-11-21T06:40:28;7.00;99.90
5027;DHT22;2532;52.480;13.354;2023-11-21T06:42:56;7.00;99.90
5027;DHT22;2532;52.480;13.354;2023-11-21T06:45:24;7.00;99.90
5027;DHT22;2532;52.480;13.354;2023-11-21T06:47:51;7.00;99.90
5027;DHT22;2532;52.480;13.354;2023-11-21T06:50:18;7.00;99.90
5027;DHT22;2532;52.480;13.354;2023-11-21T06:52:49;7.10;99.90
5027;DHT22;2532;52.480;13.354;2023-11-21T06:55:16;7.10;99.80
5027;DHT22;2532;52.480;13.354;2023-11-21T06:57:43;7.00;99.70
5027;DHT22;2532;52.480;13.354;2023-11-21T07:00:12;6.90;99.80
5027;DHT22;2532;52.480;13.354;2023-11-21T07:02:40;6.90;99.80
5027;DHT22;2532;52.480;13.354;2023-11-21T07:05:07;6.90;99.80
5027;DHT22;2532;52.480;13.354;2023-11-21T07:07:35;6.90;99.70
5027;DHT22;2532;52.480;13.354;2023-11-21T07:10:03;6.90;99.80
5027;DHT22;2532;52.480;13.354;2023-11-21T07:12:31;6.90;99.90
5027;DHT22;2532;52.480;13.354;2023-11-21T07:14:58;6.80;99.90
5027;DHT22;2532;52.480;13.354;2023-11-21T07:17:26;6.80;99.80
5027;DHT22;2532;52.480;13.354;2023-11-21T07:19:53;6.80;99.90
5027;DHT22;2532;52.480;13.354;2023-11-21T07:22:22;6.70;99.90
5027;DHT22;2532;52.480;13.354;2023-11-21T07:24:52;6.70;99.90
5027;DHT22;2532;52.480;13.354;2023-11-21T07:27:19;6.70;99.90
5027;DHT22;2532;52.480;13.354;2023-11-21T07:29:46;6.80;99.90
5027;DHT22;2532;52.480;13.354;2023-11-21T07:32:14;6.80;99.90
5027;DHT22;2532;52.480;13.354;2023-11-21T07:34:43;6.80;99.90
5027;DHT22;2532;52.480;13.354;2023-11-21T07:37:09;6.80;99.90
5027;DHT22;2532;52.480;13.354;2023-11-21T07:39:37;6.80;99.90
5027;DHT22;2532;52.480;13.354;2023-11-21T07:42:07;6.70;99.90
5027;DHT22;2532;52.480;13.354;2023-11-21T07:44:34;6.80;99.90
5027;DHT22;2532;52.480;13.354;2023-11-21T07:47:02;6.80;99.90
5027;DHT22;2532;52.480;13.354;2023-11-21T07:49:30;6.80;99.90
5027;DHT22;2532;52.480;13.354;2023-11-21T07:51:58;6.80;99.90
5027;DHT22;2532;52.480;13.354;2023-11-21T07:54:25;6.80;99.90
5027;DHT22;2532;52.480;13.354;2023-11-21T07:56:52;6.70;99.90
5027;DHT22;2532;52.480;13.354;2023-11-21T07:59:19;6.80;99.90
5027;DHT22;2532;52.480;13.354;2023-11-21T08:01:46;6.80;99.90
5027;DHT22;2532;52.480;13.354;2023-11-21T08:04:13;6.80;99.90
5027;DHT22;2532;52.480;13.354;2023-11-21T08:06:40;6.70;99.90
5027;DHT22;2532;52.480;13.354;2023-11-21T08:09:09;6.80;99.90
5027;DHT22;2532;52.480;13.354;2023-11-21T08:11:38;6.80;99.90
5027;DHT22;2532;52.480;13.354;2023-11-21T08:14:05;6.80;99.90
5027;DHT22;2532;52.480;13.354;2023-11-21T08:16:32;6.80;99.90
5027;DHT22;2532;52.480;13.354;2023-11-21T08:18:59;6.70;99.90
5027;DHT22;2532;52.480;13.354;2023-11-21T08:21:26;6.80;99.90
5027;DHT22;2532;52.480;13.354;2023-11-21T08:23:54;6.80;99.90
5027;DHT22;2532;52.480;13.354;2023-11-21T08:26:22;6.80;99.90
5027;DHT22;2532;52.480;13.354;2023-11-21T08:28:50;6.80;99.90
5027;DHT22;2532;52.480;13.354;2023-11-21T08:31:24;6.80;99.90
5027;DHT22;2532;52.480;13.354;2023-11-21T08:33:51;6.80;99.90
5027;DHT22;2532;52.480;13.354;2023-11-21T08:36:21;6.80;99.90
5027;DHT22;2532;52.480;13.354;2023-11-21T08:38:48;6.80;99.90
5027;DHT22;2532;52.480;13.354;2023-11-21T08:41:15;6.80;99.90
5027;DHT22;2532;52.480;13.354;2023-11-21T08:43:43;6.80;99.90
5027;DHT22;2532;52.480;13.354;2023-11-21T08:46:10;6.80;99.90
5027;DHT22;2532;52.480;13.354;2023-11-21T08:48:38;6.80;99.80
5027;DHT22;2532;52.480;13.354;2023-11-21T08:51:05;6.80;99.50
5027;DHT22;2532;52.480;13.354;2023-11-21T08:53:32;6.80;99.30
5027;DHT22;2532;52.480;13.354;2023-11-21T08:55:59;6.80;99.40
5027;DHT22;2532;52.480;13.354;2023-11-21T08:58:26;6.70;99.20
5027;DHT22;2532;52.480;13.354;2023-11-21T09:00:54;6.80;99.40
5027;DHT22;2532;52.480;13.354;2023-11-21T09:03:21;6.80;99.50
5027;DHT22;2532;52.480;13.354;2023-11-21T09:05:48;6.80;99.40
5027;DHT22;2532;52.480;13.354;2023-11-21T09:08:15;6.80;99.40
5027;DHT22;2532;52.480;13.354;2023-11-21T09:10:42;6.90;99.40
5027;DHT22;2532;52.480;13.354;2023-11-21T09:13:12;6.80;99.40
5027;DHT22;2532;52.480;13.354;2023-11-21T09:15:42;6.80;99.40
5027;DHT22;2532;52.480;13.354;2023-11-21T09:18:13;6.80;99.20
5027;DHT22;2532;52.480;13.354;2023-11-21T09:20:40;6.80;99.10
5027;DHT22;2532;52.480;13.354;2023-11-21T09:23:08;6.80;99.10
5027;DHT22;2532;52.480;13.354;2023-11-21T09:25:35;6.90;99.50
5027;DHT22;2532;52.480;13.354;2023-11-21T09:28:02;6.80;99.40
5027;DHT22;2532;52.480;13.354;2023-11-21T09:30:33;6.80;99.00
5027;DHT22;2532;52.480;13.354;2023-11-21T09:33:00;6.70;99.00
5027;DHT22;2532;52.480;13.354;2023-11-21T09:35:28;6.70;99.20
5027;DHT22;2532;52.480;13.354;2023-11-21T09:37:55;6.60;99.50
5027;DHT22;2532;52.480;13.354;2023-11-21T09:40:22;6.60;99.70
5027;DHT22;2532;52.480;13.354;2023-11-21T09:42:55;6.60;99.70
5027;DHT22;2532;52.480;13.354;2023-11-21T09:45:25;6.60;99.30
5027;DHT22;2532;52.480;13.354;2023-11-21T09:47:53;6.70;99.40
5027;DHT22;2532;52.480;13.354;2023-11-21T09:50:22;6.70;99.30
5027;DHT22;2532;52.480;13.354;2023-11-21T09:52:55;6.70;99.20
5027;DHT22;2532;52.480;13.354;2023-11-21T09:55:26;6.70;99.40
5027;DHT22;2532;52.480;13.354;2023-11-21T09:57:54;6.70;99.40
5027;DHT22;2532;52.480;13.354;2023-11-21T10:00:22;6.70;99.70
5027;DHT22;2532;52.480;13.354;2023-11-21T10:02:51;6.70;99.90
5027;DHT22;2532;52.480;13.354;2023-11-21T10:05:19;6.70;99.80
5027;DHT22;2532;52.480;13.354;2023-11-21T10:07:48;6.60;99.80
5027;DHT22;2532;52.480;13.354;2023-11-21T10:10:19;6.60;99.70
5027;DHT22;2532;52.480;13.354;2023-11-21T10:12:49;6.50;99.70
5027;DHT22;2532;52.480;13.354;2023-11-21T10:15:21;6.50;99.60
5027;DHT22;2532;52.480;13.354;2023-11-21T10:17:49;6.50;99.70
5027;DHT22;2532;52.480;13.354;2023-11-21T10:20:19;6.50;99.70
5027;DHT22;2532;52.480;13.354;2023-11-21T10:22:46;6.50;99.80
5027;DHT22;2532;52.480;13.354;2023-11-21T10:25:13;6.50;99.80
5027;DHT22;2532;52.480;13.354;2023-11-21T10:27:42;6.50;99.80
5027;DHT22;2532;52.480;13.354;2023-11-21T10:30:10;6.50;99.90
5027;DHT22;2532;52.480;13.354;2023-11-21T10:32:37;6.60;99.90
5027;DHT22;2532;52.480;13.354;2023-11-21T10:35:06;6.60;99.90
5027;DHT22;2532;52.480;13.354;2023-11-21T10:37:35;6.60;99.90
5027;DHT22;2532;52.480;13.354;2023-11-21T10:40:06;6.60;99.90
5027;DHT22;2532;52.480;13.354;2023-11-21T10:42:33;6.60;99.90
5027;DHT22;2532;52.480;13.354;2023-11-21T10:45:01;6.50;99.90
5027;DHT22;2532;52.480;13.354;2023-11-21T10:47:31;6.50;99.90
5027;DHT22;2532;52.480;13.354;2023-11-21T10:50:00;6.40;99.90
5027;DHT22;2532;52.480;13.354;2023-11-21T10:52:27;6.40;99.90
5027;DHT22;2532;52.480;13.354;2023-11-21T10:54:54;6.30;99.90
5027;DHT22;2532;52.480;13.354;2023-11-21T10:57:25;6.20;99.90
5027;DHT22;2532;52.480;13.354;2023-11-21T10:59:54;6.20;99.90
5027;DHT22;2532;52.480;13.354;2023-11-21T11:02:24;6.30;99.90
5027;DHT22;2532;52.480;13.354;2023-11-21T11:04:54;6.30;99.90
5027;DHT22;2532;52.480;13.354;2023-11-21T11:07:25;6.30;99.90
5027;DHT22;2532;52.480;13.354;2023-11-21T11:09:53;6.30;99.90
5027;DHT22;2532;52.480;13.354;2023-11-21T11:12:20;6.20;99.90
5027;DHT22;2532;52.480;13.354;2023-11-21T11:14:48;6.20;99.90
5027;DHT22;2532;52.480;13.354;2023-11-21T11:17:16;6.20;99.90
5027;DHT22;2532;52.480;13.354;2023-11-21T11:19:47;6.10;99.90
5027;DHT22;2532;52.480;13.354;2023-11-21T11:22:28;6.00;99.90
5027;DHT22;2532;52.480;13.354;2023-11-21T11:25:24;5.90;99.90
5027;DHT22;2532;52.480;13.354;2023-11-21T11:27:57;5.80;99.90
5027;DHT22;2532;52.480;13.354;2023-11-21T11:30:36;5.80;99.90
5027;DHT22;2532;52.480;13.354;2023-11-21T11:33:11;5.80;99.90
5027;DHT22;2532;52.480;13.354;2023-11-21T11:35:50;5.80;99.90
5027;DHT22;2532;52.480;13.354;2023-11-21T11:38:21;5.80;99.90
5027;DHT22;2532;52.480;13.354;2023-11-21T11:40:52;5.70;99.90
5027;DHT22;2532;52.480;13.354;2023-11-21T11:43:25;5.70;99.90
5027;DHT22;2532;52.480;13.354;2023-11-21T11:45:55;5.70;99.90
5027;DHT22;2532;52.480;13.354;2023-11-21T11:48:22;5.60;99.90
5027;DHT22;2532;52.480;13.354;2023-11-21T11:51:11;5.60;99.90
5027;DHT22;2532;52.480;13.354;2023-11-21T11:53:40;5.60;99.90
5027;DHT22;2532;52.480;13.354;2023-11-21T11:56:25;5.60;99.90
5027;DHT22;2532;52.480;13.354;2023-11-21T11:58:53;5.70;99.90
5027;DHT22;2532;52.480;13.354;2023-11-21T12:01:22;5.60;99.90
5027;DHT22;2532;52.480;13.354;2023-11-21T12:04:23;5.60;99.90
5027;DHT22;2532;52.480;13.354;2023-11-21T12:06:59;5.60;99.90
5027;DHT22;2532;52.480;13.354;2023-11-21T12:09:28;5.60;99.90
5027;DHT22;2532;52.480;13.354;2023-11-21T12:11:56;5.60;99.90
5027;DHT22;2532;52.480;13.354;2023-11-21T12:14:24;5.60;99.90
5027;DHT22;2532;52.480;13.354;2023-11-21T12:16:51;5.70;99.90
5027;DHT22;2532;52.480;13.354;2023-11-21T12:19:19;5.70;99.90
5027;DHT22;2532;52.480;13.354;2023-11-21T12:21:48;5.80;99.90
5027;DHT22;2532;52.480;13.354;2023-11-21T12:24:17;5.90;99.90
5027;DHT22;2532;52.480;13.354;2023-11-21T12:26:44;5.90;99.90
5027;DHT22;2532;52.480;13.354;2023-11-21T12:29:12;6.00;99.90
5027;DHT22;2532;52.480;13.354;2023-11-21T12:31:39;6.00;99.90
5027;DHT22;2532;52.480;13.354;2023-11-21T12:34:06;6.00;99.90
5027;DHT22;2532;52.480;13.354;2023-11-21T12:36:37;5.90;99.90
5027;DHT22;2532;52.480;13.354;2023-11-21T12:39:04;5.90;99.90
5027;DHT22;2532;52.480;13.354;2023-11-21T12:41:33;5.90;99.90
5027;DHT22;2532;52.480;13.354;2023-11-21T12:44:01;5.80;99.90
5027;DHT22;2532;52.480;13.354;2023-11-21T12:46:41;5.90;99.90
5027;DHT22;2532;52.480;13.354;2023-11-21T12:49:10;5.70;99.90
5027;DHT22;2532;52.480;13.354;2023-11-21T12:51:43;5.80;99.90
5027;DHT22;2532;52.480;13.354;2023-11-21T12:54:10;5.70;99.90
5027;DHT22;2532;52.480;13.354;2023-11-21T12:56:39;5.60;99.90
5027;DHT22;2532;52.480;13.354;2023-11-21T12:59:06;5.60;99.90
5027;DHT22;2532;52.480;13.354;2023-11-21T13:01:41;5.70;99.90
5027;DHT22;2532;52.480;13.354;2023-11-21T13:04:08;5.70;99.90
5027;DHT22;2532;52.480;13.354;2023-11-21T13:06:37;5.60;99.90
5027;DHT22;2532;52.480;13.354;2023-11-21T13:09:06;5.70;99.90
5027;DHT22;2532;52.480;13.354;2023-11-21T13:11:36;5.70;99.90
5027;DHT22;2532;52.480;13.354;2023-11-21T13:14:07;5.70;99.90
5027;DHT22;2532;52.480;13.354;2023-11-21T13:16:39;5.60;99.90
5027;DHT22;2532;52.480;13.354;2023-11-21T13:19:11;5.60;99.90
5027;DHT22;2532;52.480;13.354;2023-11-21T13:21:38;5.50;99.90
5027;DHT22;2532;52.480;13.354;2023-11-21T13:24:06;5.60;99.90
5027;DHT22;2532;52.480;13.354;2023-11-21T13:26:33;5.60;99.90
5027;DHT22;2532;52.480;13.354;2023-11-21T13:29:00;5.70;99.90
5027;DHT22;2532;52.480;13.354;2023-11-21T13:31:31;5.70;99.90
5027;DHT22;2532;52.480;13.354;2023-11-21T13:34:02;5.70;99.90
5027;DHT22;2532;52.480;13.354;2023-11-21T13:36:31;5.70;99.90
5027;DHT22;2532;52.480;13.354;2023-11-21T13:38:59;5.70;99.90
5027;DHT22;2532;52.480;13.354;2023-11-21T13:41:30;5.60;99.90
5027;DHT22;2532;52.480;13.354;2023-11-21T13:43:57;5.60;99.90
5027;DHT22;2532;52.480;13.354;2023-11-21T13:46:33;5.60;99.90
5027;DHT22;2532;52.480;13.354;2023-11-21T13:49:02;5.50;99.90
5027;DHT22;2532;52.480;13.354;2023-11-21T13:51:35;5.50;99.90
5027;DHT22;2532;52.480;13.354;2023-11-21T13:54:06;5.50;99.90
5027;DHT22;2532;52.480;13.354;2023-11-21T13:56:35;5.40;99.90
5027;DHT22;2532;52.480;13.354;2023-11-21T13:59:02;5.50;99.90
5027;DHT22;2532;52.480;13.354;2023-11-21T14:01:40;5.50;99.90
5027;DHT22;2532;52.480;13.354;2023-11-21T14:04:20;5.60;99.90
5027;DHT22;2532;52.480;13.354;2023-11-21T14:07:01;5.40;99.90
5027;DHT22;2532;52.480;13.354;2023-11-21T14:09:44;5.30;99.90
5027;DHT22;2532;52.480;13.354;2023-11-21T14:12:11;5.30;99.90
5027;DHT22;2532;52.480;13.354;2023-11-21T14:14:40;5.30;99.90
5027;DHT22;2532;52.480;13.354;2023-11-21T14:17:08;5.20;99.90
5027;DHT22;2532;52.480;13.354;2023-11-21T14:19:36;5.20;99.90
5027;DHT22;2532;52.480;13.354;2023-11-21T14:22:06;5.10;99.90
5027;DHT22;2532;52.480;13.354;2023-11-21T14:24:35;5.00;99.90
5027;DHT22;2532;52.480;13.354;2023-11-21T14:27:03;4.90;99.90
5027;DHT22;2532;52.480;13.354;2023-11-21T14:29:30;4.80;99.90
5027;DHT22;2532;52.480;13.354;2023-11-21T14:32:02;4.80;99.90
5027;DHT22;2532;52.480;13.354;2023-11-21T14:34:32;4.70;99.90
5027;DHT22;2532;52.480;13.354;2023-11-21T14:37:02;4.80;99.90
5027;DHT22;2532;52.480;13.354;2023-11-21T14:39:29;4.70;99.90
5027;DHT22;2532;52.480;13.354;2023-11-21T14:42:00;4.70;99.90
5027;DHT22;2532;52.480;13.354;2023-11-21T14:44:28;4.80;99.90
5027;DHT22;2532;52.480;13.354;2023-11-21T14:47:01;4.80;99.90
5027;DHT22;2532;52.480;13.354;2023-11-21T14:49:33;4.70;99.90
5027;DHT22;2532;52.480;13.354;2023-11-21T14:52:13;4.70;99.90
5027;DHT22;2532;52.480;13.354;2023-11-21T14:54:57;4.60;99.90
5027;DHT22;2532;52.480;13.354;2023-11-21T14:57:44;4.70;99.90
5027;DHT22;2532;52.480;13.354;2023-11-21T15:00:16;4.70;99.90
5027;DHT22;2532;52.480;13.354;2023-11-21T15:02:57;4.70;99.90
5027;DHT22;2532;52.480;13.354;2023-11-21T15:05:25;4.60;99.90
5027;DHT22;2532;52.480;13.354;2023-11-21T15:07:56;4.60;99.90
5027;DHT22;2532;52.480;13.354;2023-11-21T15:10:39;4.50;99.90
5027;DHT22;2532;52.480;13.354;2023-11-21T15:13:15;4.50;99.90
5027;DHT22;2532;52.480;13.354;2023-11-21T15:15:45;4.40;99.90
5027;DHT22;2532;52.480;13.354;2023-11-21T15:18:13;4.40;99.90
5027;DHT22;2532;52.480;13.354;2023-11-21T15:20:41;4.30;99.90
5027;DHT22;2532;52.480;13.354;2023-11-21T15:23:09;4.30;99.90
5027;DHT22;2532;52.480;13.354;2023-11-21T15:25:38;4.30;99.90
5027;DHT22;2532;52.480;13.354;2023-11-21T15:28:05;4.30;99.90
5027;DHT22;2532;52.480;13.354;2023-11-21T15:30:35;4.30;99.90
5027;DHT22;2532;52.480;13.354;2023-11-21T15:33:02;4.30;99.90
5027;DHT22;2532;52.480;13.354;2023-11-21T15:35:29;4.30;99.70
5027;DHT22;2532;52.480;13.354;2023-11-21T15:37:58;4.30;99.70
5027;DHT22;2532;52.480;13.354;2023-11-21T15:40:25;4.30;99.70
5027;DHT22;2532;52.480;13.354;2023-11-21T15:42:52;4.30;99.60
5027;DHT22;2532;52.480;13.354;2023-11-21T15:45:19;4.30;99.60
5027;DHT22;2532;52.480;13.354;2023-11-21T15:47:49;4.30;99.60
5027;DHT22;2532;52.480;13.354;2023-11-21T15:50:16;4.30;99.70
5027;DHT22;2532;52.480;13.354;2023-11-21T15:52:43;4.30;99.70
5027;DHT22;2532;52.480;13.354;2023-11-21T15:55:13;4.30;99.70
5027;DHT22;2532;52.480;13.354;2023-11-21T15:57:40;4.30;99.80
5027;DHT22;2532;52.480;13.354;2023-11-21T16:00:09;4.40;99.60
5027;DHT22;2532;52.480;13.354;2023-11-21T16:02:42;4.40;99.60
5027;DHT22;2532;52.480;13.354;2023-11-21T16:05:09;4.50;99.50
5027;DHT22;2532;52.480;13.354;2023-11-21T16:07:39;4.50;99.60
5027;DHT22;2532;52.480;13.354;2023-11-21T16:10:07;4.50;99.50
5027;DHT22;2532;52.480;13.354;2023-11-21T16:12:38;4.50;99.20